sensor_id;sensor_type;location;lat;lon;timestamp;P1;durP1;ratioP1;P2;durP2;ratioP2
80565;SDS011;69915;54.862;10.730;2023-05-10T00:02:25;4.85;;;2.40;;
80565;SDS011;69915;54.862;10.730;2023-05-10T00:04:51;3.65;;;1.80;;
80565;SDS011;69915;54.862;10.730;2023-05-10T00:07:17;4.28;;;2.13;;
80565;SDS011;69915;54.862;10.730;2023-05-10T00:09:43;3.92;;;2.13;;
80565;SDS011;69915;54.862;10.730;2023-05-10T00:12:09;3.92;;;1.73;;
80565;SDS011;69915;54.862;10.730;2023-05-10T00:14:34;3.15;;;1.98;;
80565;SDS011;69915;54.862;10.730;2023-05-10T00:17:00;4.75;;;1.88;;
80565;SDS011;69915;54.862;10.730;2023-05-10T00:19:25;4.85;;;2.28;;
80565;SDS011;69915;54.862;10.730;2023-05-10T00:21:51;3.78;;;1.95;;
80565;SDS011;69915;54.862;10.730;2023-05-10T00:24:16;7.05;;;2.75;;
80565;SDS011;69915;54.862;10.730;2023-05-10T00:26:42;4.82;;;2.53;;
80565;SDS011;69915;54.862;10.730;2023-05-10T00:29:07;8.05;;;2.17;;
80565;SDS011;69915;54.862;10.730;2023-05-10T00:31:33;4.05;;;2.15;;
80565;SDS011;69915;54.862;10.730;2023-05-10T00:33:58;4.35;;;1.95;;
80565;SDS011;69915;54.862;10.730;2023-05-10T00:36:24;6.82;;;2.10;;
80565;SDS011;69915;54.862;10.730;2023-05-10T00:38:49;3.42;;;2.22;;
80565;SDS011;69915;54.862;10.730;2023-05-10T00:41:14;4.22;;;1.65;;
80565;SDS011;69915;54.862;10.730;2023-05-10T00:43:40;4.22;;;2.35;;
80565;SDS011;69915;54.862;10.730;2023-05-10T00:46:06;5.18;;;2.10;;
80565;SDS011;69915;54.862;10.730;2023-05-10T00:48:32;4.93;;;2.42;;
80565;SDS011;69915;54.862;10.730;2023-05-10T00:50:58;3.78;;;2.30;;
80565;SDS011;69915;54.862;10.730;2023-05-10T00:53:24;4.60;;;1.90;;
80565;SDS011;69915;54.862;10.730;2023-05-10T00:55:50;4.90;;;2.38;;
80565;SDS011;69915;54.862;10.730;2023-05-10T00:58:16;5.78;;;2.30;;
80565;SDS011;69915;54.862;10.730;2023-05-10T01:00:42;8.25;;;2.58;;
80565;SDS011;69915;54.862;10.730;2023-05-10T01:03:09;3.97;;;2.40;;
80565;SDS011;69915;54.862;10.730;2023-05-10T01:05:36;4.80;;;1.95;;
80565;SDS011;69915;54.862;10.730;2023-05-10T01:08:02;2.60;;;1.58;;
80565;SDS011;69915;54.862;10.730;2023-05-10T01:10:27;3.78;;;2.10;;
80565;SDS011;69915;54.862;10.730;2023-05-10T01:12:53;3.67;;;1.90;;
80565;SDS011;69915;54.862;10.730;2023-05-10T01:15:19;3.88;;;1.92;;
80565;SDS011;69915;54.862;10.730;2023-05-10T01:17:46;6.50;;;1.83;;
80565;SDS011;69915;54.862;10.730;2023-05-10T01:20:13;3.40;;;2.13;;
80565;SDS011;69915;54.862;10.730;2023-05-10T01:25:17;3.28;;;1.65;;
80565;SDS011;69915;54.862;10.730;2023-05-10T01:27:58;6.43;;;2.33;;
80565;SDS011;69915;54.862;10.730;2023-05-10T01:33:09;4.68;;;1.77;;
80565;SDS011;69915;54.862;10.730;2023-05-10T01:35:46;5.05;;;2.22;;
80565;SDS011;69915;54.862;10.730;2023-05-10T01:38:29;3.42;;;1.95;;
80565;SDS011;69915;54.862;10.730;2023-05-10T01:44:14;10.82;;;2.38;;
80565;SDS011;69915;54.862;10.730;2023-05-10T01:46:39;3.78;;;1.60;;
80565;SDS011;69915;54.862;10.730;2023-05-10T01:49:09;6.95;;;2.35;;
80565;SDS011;69915;54.862;10.730;2023-05-10T01:51:40;4.85;;;2.10;;
80565;SDS011;69915;54.862;10.730;2023-05-10T01:54:12;5.03;;;1.73;;
80565;SDS011;69915;54.862;10.730;2023-05-10T01:56:39;4.35;;;2.75;;
80565;SDS011;69915;54.862;10.730;2023-05-10T01:59:08;5.35;;;2.63;;
80565;SDS011;69915;54.862;10.730;2023-05-10T02:01:39;5.35;;;2.75;;
80565;SDS011;69915;54.862;10.730;2023-05-10T02:04:06;4.00;;;1.73;;
80565;SDS011;69915;54.862;10.730;2023-05-10T02:06:33;2.63;;;1.25;;
80565;SDS011;69915;54.862;10.730;2023-05-10T02:09:00;5.10;;;2.10;;
80565;SDS011;69915;54.862;10.730;2023-05-10T02:11:26;5.10;;;1.90;;
80565;SDS011;69915;54.862;10.730;2023-05-10T02:13:54;7.07;;;2.58;;
80565;SDS011;69915;54.862;10.730;2023-05-10T02:16:23;4.70;;;2.22;;
80565;SDS011;69915;54.862;10.730;2023-05-10T02:18:51;4.47;;;2.35;;
80565;SDS011;69915;54.862;10.730;2023-05-10T02:21:18;7.25;;;2.58;;
80565;SDS011;69915;54.862;10.730;2023-05-10T02:23:45;3.70;;;2.17;;
80565;SDS011;69915;54.862;10.730;2023-05-10T02:26:14;5.25;;;2.38;;
80565;SDS011;69915;54.862;10.730;2023-05-10T02:28:41;7.72;;;2.25;;
80565;SDS011;69915;54.862;10.730;2023-05-10T02:31:07;4.15;;;2.28;;
80565;SDS011;69915;54.862;10.730;2023-05-10T02:33:36;3.40;;;2.00;;
80565;SDS011;69915;54.862;10.730;2023-05-10T02:36:04;5.70;;;2.95;;
80565;SDS011;69915;54.862;10.730;2023-05-10T02:38:31;5.50;;;2.00;;
80565;SDS011;69915;54.862;10.730;2023-05-10T02:40:58;3.80;;;1.95;;
80565;SDS011;69915;54.862;10.730;2023-05-10T02:43:24;6.28;;;2.00;;
80565;SDS011;69915;54.862;10.730;2023-05-10T02:45:51;10.80;;;2.40;;
80565;SDS011;69915;54.862;10.730;2023-05-10T02:48:16;4.05;;;2.15;;
80565;SDS011;69915;54.862;10.730;2023-05-10T02:50:43;4.97;;;2.67;;
80565;SDS011;69915;54.862;10.730;2023-05-10T02:53:10;7.78;;;3.35;;
80565;SDS011;69915;54.862;10.730;2023-05-10T02:55:40;6.45;;;2.42;;
80565;SDS011;69915;54.862;10.730;2023-05-10T02:58:08;3.97;;;2.28;;
80565;SDS011;69915;54.862;10.730;2023-05-10T03:00:34;9.85;;;3.10;;
80565;SDS011;69915;54.862;10.730;2023-05-10T03:03:00;4.80;;;2.40;;
80565;SDS011;69915;54.862;10.730;2023-05-10T03:05:26;7.88;;;2.30;;
80565;SDS011;69915;54.862;10.730;2023-05-10T03:07:51;4.05;;;2.40;;
80565;SDS011;69915;54.862;10.730;2023-05-10T03:10:18;3.55;;;1.10;;
80565;SDS011;69915;54.862;10.730;2023-05-10T03:13:01;5.25;;;2.33;;
80565;SDS011;69915;54.862;10.730;2023-05-10T03:18:23;5.20;;;2.92;;
80565;SDS011;69915;54.862;10.730;2023-05-10T03:21:02;4.55;;;2.17;;
80565;SDS011;69915;54.862;10.730;2023-05-10T03:23:35;4.75;;;2.22;;
80565;SDS011;69915;54.862;10.730;2023-05-10T03:26:14;6.78;;;2.47;;
80565;SDS011;69915;54.862;10.730;2023-05-10T03:28:45;5.07;;;2.60;;
80565;SDS011;69915;54.862;10.730;2023-05-10T03:31:13;5.45;;;2.10;;
80565;SDS011;69915;54.862;10.730;2023-05-10T03:33:49;6.47;;;3.15;;
80565;SDS011;69915;54.862;10.730;2023-05-10T03:36:15;9.45;;;3.40;;
80565;SDS011;69915;54.862;10.730;2023-05-10T03:38:41;4.00;;;2.13;;
80565;SDS011;69915;54.862;10.730;2023-05-10T03:41:06;4.88;;;2.45;;
80565;SDS011;69915;54.862;10.730;2023-05-10T03:43:32;3.30;;;1.88;;
80565;SDS011;69915;54.862;10.730;2023-05-10T03:45:57;4.75;;;2.42;;
80565;SDS011;69915;54.862;10.730;2023-05-10T03:48:23;3.85;;;2.15;;
80565;SDS011;69915;54.862;10.730;2023-05-10T03:50:48;6.78;;;2.78;;
80565;SDS011;69915;54.862;10.730;2023-05-10T03:53:14;4.43;;;2.17;;
80565;SDS011;69915;54.862;10.730;2023-05-10T03:55:40;4.53;;;2.58;;
80565;SDS011;69915;54.862;10.730;2023-05-10T03:58:06;5.13;;;2.88;;
80565;SDS011;69915;54.862;10.730;2023-05-10T04:00:31;5.45;;;2.72;;
80565;SDS011;69915;54.862;10.730;2023-05-10T04:02:57;5.28;;;2.88;;
80565;SDS011;69915;54.862;10.730;2023-05-10T04:05:23;5.95;;;2.35;;
80565;SDS011;69915;54.862;10.730;2023-05-10T04:07:49;3.63;;;1.98;;
80565;SDS011;69915;54.862;10.730;2023-05-10T04:10:15;4.43;;;2.28;;
80565;SDS011;69915;54.862;10.730;2023-05-10T04:12:41;7.80;;;2.28;;
80565;SDS011;69915;54.862;10.730;2023-05-10T04:15:07;6.45;;;2.22;;
80565;SDS011;69915;54.862;10.730;2023-05-10T04:17:33;4.40;;;2.30;;
80565;SDS011;69915;54.862;10.730;2023-05-10T04:19:58;12.45;;;2.40;;
80565;SDS011;69915;54.862;10.730;2023-05-10T04:22:24;4.47;;;2.13;;
80565;SDS011;69915;54.862;10.730;2023-05-10T04:24:49;5.22;;;3.15;;
80565;SDS011;69915;54.862;10.730;2023-05-10T04:27:14;5.65;;;2.63;;
80565;SDS011;69915;54.862;10.730;2023-05-10T04:29:40;6.50;;;2.80;;
80565;SDS011;69915;54.862;10.730;2023-05-10T04:32:06;4.35;;;2.70;;
80565;SDS011;69915;54.862;10.730;2023-05-10T04:34:32;4.38;;;2.55;;
80565;SDS011;69915;54.862;10.730;2023-05-10T04:36:59;6.28;;;3.38;;
80565;SDS011;69915;54.862;10.730;2023-05-10T04:39:24;7.18;;;2.38;;
80565;SDS011;69915;54.862;10.730;2023-05-10T04:41:50;3.65;;;2.30;;
80565;SDS011;69915;54.862;10.730;2023-05-10T04:44:15;4.70;;;1.83;;
80565;SDS011;69915;54.862;10.730;2023-05-10T04:46:41;3.00;;;1.90;;
80565;SDS011;69915;54.862;10.730;2023-05-10T04:49:06;6.47;;;2.35;;
80565;SDS011;69915;54.862;10.730;2023-05-10T04:51:31;6.22;;;3.03;;
80565;SDS011;69915;54.862;10.730;2023-05-10T04:53:57;5.93;;;2.38;;
80565;SDS011;69915;54.862;10.730;2023-05-10T04:56:22;6.90;;;3.28;;
80565;SDS011;69915;54.862;10.730;2023-05-10T04:58:48;9.13;;;3.50;;
80565;SDS011;69915;54.862;10.730;2023-05-10T05:01:14;4.88;;;2.10;;
80565;SDS011;69915;54.862;10.730;2023-05-10T05:03:40;3.72;;;1.75;;
80565;SDS011;69915;54.862;10.730;2023-05-10T05:06:05;3.28;;;1.83;;
80565;SDS011;69915;54.862;10.730;2023-05-10T05:08:31;5.03;;;2.72;;
80565;SDS011;69915;54.862;10.730;2023-05-10T05:10:56;6.05;;;2.45;;
80565;SDS011;69915;54.862;10.730;2023-05-10T05:13:22;4.45;;;1.75;;
80565;SDS011;69915;54.862;10.730;2023-05-10T05:15:47;5.43;;;2.42;;
80565;SDS011;69915;54.862;10.730;2023-05-10T05:18:12;5.25;;;2.45;;
80565;SDS011;69915;54.862;10.730;2023-05-10T05:20:38;4.63;;;2.22;;
80565;SDS011;69915;54.862;10.730;2023-05-10T05:23:03;5.93;;;3.35;;
80565;SDS011;69915;54.862;10.730;2023-05-10T05:25:29;4.72;;;1.52;;
80565;SDS011;69915;54.862;10.730;2023-05-10T05:27:54;5.05;;;2.70;;
80565;SDS011;69915;54.862;10.730;2023-05-10T05:30:19;4.68;;;2.83;;
80565;SDS011;69915;54.862;10.730;2023-05-10T05:32:45;5.20;;;3.03;;
80565;SDS011;69915;54.862;10.730;2023-05-10T05:35:12;5.20;;;2.95;;
80565;SDS011;69915;54.862;10.730;2023-05-10T05:37:37;8.05;;;2.15;;
80565;SDS011;69915;54.862;10.730;2023-05-10T05:40:03;4.53;;;2.17;;
80565;SDS011;69915;54.862;10.730;2023-05-10T05:42:30;10.88;;;2.53;;
80565;SDS011;69915;54.862;10.730;2023-05-10T05:44:56;3.38;;;2.00;;
80565;SDS011;69915;54.862;10.730;2023-05-10T05:47:21;7.03;;;3.10;;
80565;SDS011;69915;54.862;10.730;2023-05-10T05:49:47;10.07;;;3.30;;
80565;SDS011;69915;54.862;10.730;2023-05-10T05:52:12;6.95;;;2.90;;
80565;SDS011;69915;54.862;10.730;2023-05-10T05:54:38;5.38;;;2.75;;
80565;SDS011;69915;54.862;10.730;2023-05-10T05:57:04;7.30;;;3.10;;
80565;SDS011;69915;54.862;10.730;2023-05-10T05:59:30;4.50;;;2.60;;
80565;SDS011;69915;54.862;10.730;2023-05-10T06:01:55;6.82;;;2.65;;
80565;SDS011;69915;54.862;10.730;2023-05-10T06:04:21;6.15;;;3.05;;
80565;SDS011;69915;54.862;10.730;2023-05-10T06:06:46;4.45;;;2.83;;
80565;SDS011;69915;54.862;10.730;2023-05-10T06:09:11;9.55;;;3.10;;
80565;SDS011;69915;54.862;10.730;2023-05-10T06:11:37;8.35;;;2.88;;
80565;SDS011;69915;54.862;10.730;2023-05-10T06:14:03;4.50;;;2.90;;
80565;SDS011;69915;54.862;10.730;2023-05-10T06:16:29;4.90;;;2.50;;
80565;SDS011;69915;54.862;10.730;2023-05-10T06:18:55;4.97;;;2.63;;
80565;SDS011;69915;54.862;10.730;2023-05-10T06:21:21;5.53;;;2.47;;
80565;SDS011;69915;54.862;10.730;2023-05-10T06:23:46;4.35;;;1.75;;
80565;SDS011;69915;54.862;10.730;2023-05-10T06:26:12;5.93;;;3.10;;
80565;SDS011;69915;54.862;10.730;2023-05-10T06:28:39;3.72;;;2.30;;
80565;SDS011;69915;54.862;10.730;2023-05-10T06:31:05;5.10;;;3.00;;
80565;SDS011;69915;54.862;10.730;2023-05-10T06:33:31;4.63;;;2.90;;
80565;SDS011;69915;54.862;10.730;2023-05-10T06:35:57;6.40;;;3.15;;
80565;SDS011;69915;54.862;10.730;2023-05-10T06:38:22;9.25;;;2.90;;
80565;SDS011;69915;54.862;10.730;2023-05-10T06:40:48;7.00;;;3.30;;
80565;SDS011;69915;54.862;10.730;2023-05-10T06:43:20;6.78;;;3.13;;
80565;SDS011;69915;54.862;10.730;2023-05-10T06:45:45;4.97;;;2.97;;
80565;SDS011;69915;54.862;10.730;2023-05-10T06:48:11;4.72;;;2.65;;
80565;SDS011;69915;54.862;10.730;2023-05-10T06:50:36;6.18;;;2.60;;
80565;SDS011;69915;54.862;10.730;2023-05-10T06:53:02;5.25;;;2.88;;
80565;SDS011;69915;54.862;10.730;2023-05-10T06:55:27;7.22;;;3.10;;
80565;SDS011;69915;54.862;10.730;2023-05-10T06:57:53;3.88;;;2.55;;
80565;SDS011;69915;54.862;10.730;2023-05-10T07:00:19;3.95;;;1.95;;
80565;SDS011;69915;54.862;10.730;2023-05-10T07:02:44;5.28;;;3.00;;
80565;SDS011;69915;54.862;10.730;2023-05-10T07:05:10;6.75;;;3.33;;
80565;SDS011;69915;54.862;10.730;2023-05-10T07:07:35;5.88;;;3.30;;
80565;SDS011;69915;54.862;10.730;2023-05-10T07:10:01;7.28;;;2.67;;
80565;SDS011;69915;54.862;10.730;2023-05-10T07:12:27;5.43;;;2.42;;
80565;SDS011;69915;54.862;10.730;2023-05-10T07:14:52;6.15;;;2.88;;
80565;SDS011;69915;54.862;10.730;2023-05-10T07:17:18;3.45;;;1.65;;
80565;SDS011;69915;54.862;10.730;2023-05-10T07:19:43;4.10;;;1.98;;
80565;SDS011;69915;54.862;10.730;2023-05-10T07:22:09;5.53;;;2.47;;
80565;SDS011;69915;54.862;10.730;2023-05-10T07:24:34;6.60;;;2.80;;
80565;SDS011;69915;54.862;10.730;2023-05-10T07:27:00;6.47;;;3.35;;
80565;SDS011;69915;54.862;10.730;2023-05-10T07:29:25;4.85;;;2.50;;
80565;SDS011;69915;54.862;10.730;2023-05-10T07:31:51;6.18;;;3.00;;
80565;SDS011;69915;54.862;10.730;2023-05-10T07:34:16;6.60;;;2.97;;
80565;SDS011;69915;54.862;10.730;2023-05-10T07:36:42;6.57;;;3.03;;
80565;SDS011;69915;54.862;10.730;2023-05-10T07:39:08;6.13;;;3.15;;
80565;SDS011;69915;54.862;10.730;2023-05-10T07:41:33;7.60;;;3.13;;
80565;SDS011;69915;54.862;10.730;2023-05-10T07:43:58;7.30;;;2.38;;
80565;SDS011;69915;54.862;10.730;2023-05-10T07:46:24;3.63;;;2.20;;
80565;SDS011;69915;54.862;10.730;2023-05-10T07:48:49;4.25;;;1.92;;
80565;SDS011;69915;54.862;10.730;2023-05-10T07:51:15;4.95;;;2.58;;
80565;SDS011;69915;54.862;10.730;2023-05-10T07:53:43;6.97;;;2.22;;
80565;SDS011;69915;54.862;10.730;2023-05-10T07:59:24;12.85;;;3.38;;
80565;SDS011;69915;54.862;10.730;2023-05-10T08:01:59;4.22;;;2.35;;
80565;SDS011;69915;54.862;10.730;2023-05-10T08:07:55;4.82;;;2.55;;
80565;SDS011;69915;54.862;10.730;2023-05-10T08:10:20;5.65;;;3.03;;
80565;SDS011;69915;54.862;10.730;2023-05-10T08:12:46;7.18;;;4.43;;
80565;SDS011;69915;54.862;10.730;2023-05-10T08:15:11;3.30;;;2.20;;
80565;SDS011;69915;54.862;10.730;2023-05-10T08:17:36;4.20;;;1.98;;
80565;SDS011;69915;54.862;10.730;2023-05-10T08:20:02;4.72;;;2.75;;
80565;SDS011;69915;54.862;10.730;2023-05-10T08:22:28;5.47;;;2.85;;
80565;SDS011;69915;54.862;10.730;2023-05-10T08:24:53;5.75;;;3.00;;
80565;SDS011;69915;54.862;10.730;2023-05-10T08:27:18;4.38;;;2.25;;
80565;SDS011;69915;54.862;10.730;2023-05-10T08:29:44;4.90;;;2.33;;
80565;SDS011;69915;54.862;10.730;2023-05-10T08:32:09;4.25;;;2.47;;
80565;SDS011;69915;54.862;10.730;2023-05-10T08:34:35;5.10;;;2.50;;
80565;SDS011;69915;54.862;10.730;2023-05-10T08:37:00;5.07;;;3.00;;
80565;SDS011;69915;54.862;10.730;2023-05-10T08:39:26;4.45;;;2.47;;
80565;SDS011;69915;54.862;10.730;2023-05-10T08:41:52;5.35;;;2.63;;
80565;SDS011;69915;54.862;10.730;2023-05-10T08:44:22;3.88;;;2.35;;
80565;SDS011;69915;54.862;10.730;2023-05-10T08:46:48;4.45;;;2.22;;
80565;SDS011;69915;54.862;10.730;2023-05-10T08:49:19;5.57;;;2.90;;
80565;SDS011;69915;54.862;10.730;2023-05-10T08:51:54;5.47;;;3.10;;
80565;SDS011;69915;54.862;10.730;2023-05-10T08:54:21;3.97;;;2.50;;
80565;SDS011;69915;54.862;10.730;2023-05-10T08:56:47;6.20;;;3.40;;
80565;SDS011;69915;54.862;10.730;2023-05-10T08:59:12;4.40;;;2.65;;
80565;SDS011;69915;54.862;10.730;2023-05-10T09:01:39;5.70;;;2.88;;
80565;SDS011;69915;54.862;10.730;2023-05-10T09:04:07;5.65;;;2.88;;
80565;SDS011;69915;54.862;10.730;2023-05-10T09:06:33;4.43;;;2.75;;
80565;SDS011;69915;54.862;10.730;2023-05-10T09:08:59;3.60;;;2.20;;
80565;SDS011;69915;54.862;10.730;2023-05-10T09:11:25;6.68;;;3.05;;
80565;SDS011;69915;54.862;10.730;2023-05-10T09:13:53;4.80;;;2.30;;
80565;SDS011;69915;54.862;10.730;2023-05-10T09:16:20;5.28;;;3.42;;
80565;SDS011;69915;54.862;10.730;2023-05-10T09:18:46;4.28;;;2.92;;
80565;SDS011;69915;54.862;10.730;2023-05-10T09:21:11;6.15;;;2.35;;
80565;SDS011;69915;54.862;10.730;2023-05-10T09:23:37;5.97;;;2.25;;
80565;SDS011;69915;54.862;10.730;2023-05-10T09:26:06;5.00;;;2.20;;
80565;SDS011;69915;54.862;10.730;2023-05-10T09:28:49;5.03;;;2.03;;
80565;SDS011;69915;54.862;10.730;2023-05-10T09:31:23;3.42;;;2.13;;
80565;SDS011;69915;54.862;10.730;2023-05-10T09:33:50;4.45;;;2.47;;
80565;SDS011;69915;54.862;10.730;2023-05-10T09:36:16;4.55;;;2.92;;
80565;SDS011;69915;54.862;10.730;2023-05-10T09:38:45;7.22;;;3.55;;
80565;SDS011;69915;54.862;10.730;2023-05-10T09:41:16;4.75;;;2.15;;
80565;SDS011;69915;54.862;10.730;2023-05-10T09:43:45;7.43;;;2.47;;
80565;SDS011;69915;54.862;10.730;2023-05-10T09:46:11;4.30;;;2.38;;
80565;SDS011;69915;54.862;10.730;2023-05-10T09:48:41;4.35;;;2.72;;
80565;SDS011;69915;54.862;10.730;2023-05-10T09:51:08;4.85;;;2.80;;
80565;SDS011;69915;54.862;10.730;2023-05-10T09:53:33;4.03;;;2.50;;
80565;SDS011;69915;54.862;10.730;2023-05-10T09:55:59;3.92;;;2.70;;
80565;SDS011;69915;54.862;10.730;2023-05-10T09:58:24;4.45;;;2.58;;
80565;SDS011;69915;54.862;10.730;2023-05-10T10:00:50;5.95;;;2.55;;
80565;SDS011;69915;54.862;10.730;2023-05-10T10:03:21;4.07;;;2.28;;
80565;SDS011;69915;54.862;10.730;2023-05-10T10:05:48;9.02;;;3.30;;
80565;SDS011;69915;54.862;10.730;2023-05-10T10:08:14;4.75;;;2.65;;
80565;SDS011;69915;54.862;10.730;2023-05-10T10:10:40;6.75;;;2.60;;
80565;SDS011;69915;54.862;10.730;2023-05-10T10:13:07;5.22;;;2.85;;
80565;SDS011;69915;54.862;10.730;2023-05-10T10:15:34;4.65;;;3.05;;
80565;SDS011;69915;54.862;10.730;2023-05-10T10:18:00;4.30;;;2.40;;
80565;SDS011;69915;54.862;10.730;2023-05-10T10:20:26;7.13;;;2.38;;
80565;SDS011;69915;54.862;10.730;2023-05-10T10:22:52;4.28;;;2.40;;
80565;SDS011;69915;54.862;10.730;2023-05-10T10:25:18;5.38;;;2.70;;
80565;SDS011;69915;54.862;10.730;2023-05-10T10:36:05;7.00;;;3.15;;
80565;SDS011;69915;54.862;10.730;2023-05-10T10:39:14;5.78;;;2.78;;
80565;SDS011;69915;54.862;10.730;2023-05-10T11:00:21;4.18;;;1.90;;
80565;SDS011;69915;54.862;10.730;2023-05-10T11:03:09;3.80;;;2.45;;
80565;SDS011;69915;54.862;10.730;2023-05-10T11:08:18;3.70;;;2.00;;
80565;SDS011;69915;54.862;10.730;2023-05-10T11:13:44;4.50;;;2.80;;
80565;SDS011;69915;54.862;10.730;2023-05-10T11:18:39;4.93;;;2.55;;
80565;SDS011;69915;54.862;10.730;2023-05-10T11:21:05;5.75;;;2.97;;
80565;SDS011;69915;54.862;10.730;2023-05-10T11:26:17;5.13;;;2.45;;
80565;SDS011;69915;54.862;10.730;2023-05-10T11:31:08;3.40;;;2.28;;
80565;SDS011;69915;54.862;10.730;2023-05-10T11:36:17;4.53;;;2.65;;
80565;SDS011;69915;54.862;10.730;2023-05-10T11:38:44;4.18;;;1.90;;
80565;SDS011;69915;54.862;10.730;2023-05-10T11:41:11;4.10;;;2.00;;
80565;SDS011;69915;54.862;10.730;2023-05-10T11:43:38;4.43;;;2.42;;
80565;SDS011;69915;54.862;10.730;2023-05-10T11:46:08;3.78;;;2.42;;
80565;SDS011;69915;54.862;10.730;2023-05-10T11:48:36;4.43;;;2.40;;
80565;SDS011;69915;54.862;10.730;2023-05-10T11:51:03;4.57;;;2.67;;
80565;SDS011;69915;54.862;10.730;2023-05-10T11:53:32;4.93;;;3.08;;
80565;SDS011;69915;54.862;10.730;2023-05-10T11:56:09;3.45;;;2.28;;
80565;SDS011;69915;54.862;10.730;2023-05-10T11:58:36;4.47;;;2.60;;
80565;SDS011;69915;54.862;10.730;2023-05-10T12:01:03;4.05;;;2.80;;
80565;SDS011;69915;54.862;10.730;2023-05-10T12:03:30;4.43;;;1.88;;
80565;SDS011;69915;54.862;10.730;2023-05-10T12:05:56;3.53;;;2.17;;
80565;SDS011;69915;54.862;10.730;2023-05-10T12:08:23;4.75;;;2.50;;
80565;SDS011;69915;54.862;10.730;2023-05-10T12:10:51;4.22;;;1.98;;
80565;SDS011;69915;54.862;10.730;2023-05-10T12:13:17;7.63;;;2.60;;
80565;SDS011;69915;54.862;10.730;2023-05-10T12:15:45;4.57;;;2.20;;
80565;SDS011;69915;54.862;10.730;2023-05-10T12:18:11;4.43;;;2.28;;
80565;SDS011;69915;54.862;10.730;2023-05-10T12:20:38;4.47;;;2.10;;
80565;SDS011;69915;54.862;10.730;2023-05-10T12:23:04;6.20;;;2.65;;
80565;SDS011;69915;54.862;10.730;2023-05-10T12:25:34;3.95;;;2.47;;
80565;SDS011;69915;54.862;10.730;2023-05-10T12:28:04;4.63;;;2.03;;
80565;SDS011;69915;54.862;10.730;2023-05-10T12:30:32;4.57;;;2.60;;
80565;SDS011;69915;54.862;10.730;2023-05-10T12:33:00;4.32;;;2.30;;
80565;SDS011;69915;54.862;10.730;2023-05-10T12:35:31;3.42;;;2.13;;
80565;SDS011;69915;54.862;10.730;2023-05-10T12:37:56;4.75;;;2.70;;
80565;SDS011;69915;54.862;10.730;2023-05-10T12:40:22;4.68;;;2.50;;
80565;SDS011;69915;54.862;10.730;2023-05-10T12:42:48;5.15;;;2.50;;
80565;SDS011;69915;54.862;10.730;2023-05-10T12:45:13;3.88;;;2.28;;
80565;SDS011;69915;54.862;10.730;2023-05-10T12:47:39;3.50;;;2.15;;
80565;SDS011;69915;54.862;10.730;2023-05-10T12:50:05;4.25;;;2.20;;
80565;SDS011;69915;54.862;10.730;2023-05-10T12:52:31;5.10;;;2.58;;
80565;SDS011;69915;54.862;10.730;2023-05-10T12:54:59;2.58;;;1.50;;
80565;SDS011;69915;54.862;10.730;2023-05-10T12:57:25;4.35;;;2.38;;
80565;SDS011;69915;54.862;10.730;2023-05-10T12:59:52;3.70;;;2.05;;
80565;SDS011;69915;54.862;10.730;2023-05-10T13:02:17;7.35;;;2.70;;
80565;SDS011;69915;54.862;10.730;2023-05-10T13:04:43;4.32;;;2.22;;
80565;SDS011;69915;54.862;10.730;2023-05-10T13:07:09;4.50;;;2.17;;
80565;SDS011;69915;54.862;10.730;2023-05-10T13:09:35;6.82;;;2.00;;
80565;SDS011;69915;54.862;10.730;2023-05-10T13:12:01;4.63;;;2.67;;
80565;SDS011;69915;54.862;10.730;2023-05-10T13:14:27;5.55;;;2.78;;
80565;SDS011;69915;54.862;10.730;2023-05-10T13:16:52;3.85;;;1.98;;
80565;SDS011;69915;54.862;10.730;2023-05-10T13:19:18;4.53;;;2.15;;
80565;SDS011;69915;54.862;10.730;2023-05-10T13:21:44;3.50;;;2.35;;
80565;SDS011;69915;54.862;10.730;2023-05-10T13:24:10;5.25;;;2.30;;
80565;SDS011;69915;54.862;10.730;2023-05-10T13:26:38;4.18;;;2.90;;
80565;SDS011;69915;54.862;10.730;2023-05-10T13:29:08;4.68;;;2.13;;
80565;SDS011;69915;54.862;10.730;2023-05-10T13:31:43;3.53;;;2.00;;
80565;SDS011;69915;54.862;10.730;2023-05-10T13:37:29;4.75;;;1.90;;
80565;SDS011;69915;54.862;10.730;2023-05-10T13:40:22;8.82;;;2.45;;
80565;SDS011;69915;54.862;10.730;2023-05-10T13:43:33;4.40;;;2.13;;
80565;SDS011;69915;54.862;10.730;2023-05-10T13:46:39;3.70;;;2.03;;
80565;SDS011;69915;54.862;10.730;2023-05-10T13:49:41;5.00;;;2.28;;
80565;SDS011;69915;54.862;10.730;2023-05-10T13:52:28;3.60;;;2.10;;
80565;SDS011;69915;54.862;10.730;2023-05-10T13:54:57;6.30;;;2.30;;
80565;SDS011;69915;54.862;10.730;2023-05-10T13:57:22;4.65;;;2.50;;
80565;SDS011;69915;54.862;10.730;2023-05-10T13:59:57;4.13;;;2.40;;
80565;SDS011;69915;54.862;10.730;2023-05-10T14:02:32;3.72;;;2.22;;
80565;SDS011;69915;54.862;10.730;2023-05-10T14:04:58;4.28;;;2.30;;
80565;SDS011;69915;54.862;10.730;2023-05-10T14:07:23;5.10;;;2.47;;
80565;SDS011;69915;54.862;10.730;2023-05-10T14:09:48;4.60;;;2.30;;
80565;SDS011;69915;54.862;10.730;2023-05-10T14:12:15;3.58;;;2.20;;
80565;SDS011;69915;54.862;10.730;2023-05-10T14:14:41;4.28;;;2.25;;
80565;SDS011;69915;54.862;10.730;2023-05-10T14:17:06;3.90;;;2.03;;
80565;SDS011;69915;54.862;10.730;2023-05-10T14:19:35;6.32;;;2.60;;
80565;SDS011;69915;54.862;10.730;2023-05-10T14:22:00;6.53;;;2.15;;
80565;SDS011;69915;54.862;10.730;2023-05-10T14:24:26;5.78;;;2.38;;
80565;SDS011;69915;54.862;10.730;2023-05-10T14:26:51;5.70;;;2.63;;
80565;SDS011;69915;54.862;10.730;2023-05-10T14:29:18;4.03;;;2.60;;
80565;SDS011;69915;54.862;10.730;2023-05-10T14:31:45;4.82;;;2.33;;
80565;SDS011;69915;54.862;10.730;2023-05-10T14:34:10;5.68;;;2.70;;
80565;SDS011;69915;54.862;10.730;2023-05-10T14:36:36;3.97;;;2.50;;
80565;SDS011;69915;54.862;10.730;2023-05-10T14:39:01;4.13;;;2.05;;
80565;SDS011;69915;54.862;10.730;2023-05-10T14:41:27;3.80;;;2.28;;
80565;SDS011;69915;54.862;10.730;2023-05-10T14:43:52;4.97;;;2.38;;
80565;SDS011;69915;54.862;10.730;2023-05-10T14:46:18;4.47;;;2.00;;
80565;SDS011;69915;54.862;10.730;2023-05-10T14:48:43;4.20;;;2.13;;
80565;SDS011;69915;54.862;10.730;2023-05-10T14:51:24;3.58;;;2.00;;
80565;SDS011;69915;54.862;10.730;2023-05-10T14:53:50;5.78;;;2.40;;
80565;SDS011;69915;54.862;10.730;2023-05-10T14:56:15;5.18;;;2.50;;
80565;SDS011;69915;54.862;10.730;2023-05-10T15:01:25;4.40;;;2.08;;
80565;SDS011;69915;54.862;10.730;2023-05-10T15:03:50;3.80;;;2.10;;
80565;SDS011;69915;54.862;10.730;2023-05-10T15:06:16;3.65;;;2.38;;
80565;SDS011;69915;54.862;10.730;2023-05-10T15:08:42;5.43;;;2.63;;
80565;SDS011;69915;54.862;10.730;2023-05-10T15:11:07;6.05;;;2.67;;
80565;SDS011;69915;54.862;10.730;2023-05-10T15:13:32;5.70;;;2.75;;
80565;SDS011;69915;54.862;10.730;2023-05-10T15:16:07;4.88;;;2.95;;
80565;SDS011;69915;54.862;10.730;2023-05-10T15:18:32;6.30;;;3.15;;
80565;SDS011;69915;54.862;10.730;2023-05-10T15:20:58;5.68;;;3.88;;
80565;SDS011;69915;54.862;10.730;2023-05-10T15:23:23;7.53;;;4.65;;
80565;SDS011;69915;54.862;10.730;2023-05-10T15:25:49;5.75;;;4.25;;
80565;SDS011;69915;54.862;10.730;2023-05-10T15:28:17;5.18;;;4.05;;
80565;SDS011;69915;54.862;10.730;2023-05-10T15:30:42;10.30;;;4.95;;
80565;SDS011;69915;54.862;10.730;2023-05-10T15:33:07;8.00;;;4.72;;
80565;SDS011;69915;54.862;10.730;2023-05-10T15:35:33;10.18;;;5.13;;
80565;SDS011;69915;54.862;10.730;2023-05-10T15:38:00;15.23;;;6.50;;
80565;SDS011;69915;54.862;10.730;2023-05-10T15:40:26;8.95;;;5.10;;
80565;SDS011;69915;54.862;10.730;2023-05-10T15:42:51;12.98;;;6.43;;